Time;durP1;ratioP1;P1;durP2;ratioP2;P2;SDS_P1;SDS_P2;PMS_P1;PMS_P2;Temp;Humidity;BMP_temperature;BMP_pressure;BME280_temperature;BME280_humidity;BME280_pressure;Samples;Min_cycle;Max_cycle;Signal;HPM_P1;HPM_P2
2021/06/10 00:01:42;;;;;;;0.20;0.05;;;22.80;49.40;;;;;;4974462;28;20035;-84
2021/06/10 00:04:08;;;;;;;0.88;0.20;;;22.80;49.50;;;;;;4987898;28;20034;-83
2021/06/10 00:06:35;;;;;;;0.40;0.10;;;22.70;49.40;;;;;;4988293;28;20023;-82
2021/06/10 00:09:01;;;;;;;1.27;0.20;;;22.70;49.50;;;;;;4971909;28;20042;-84
2021/06/10 00:11:27;;;;;;;0.45;0.15;;;22.70;49.60;;;;;;4973217;28;20031;-84
2021/06/10 00:13:53;;;;;;;0.70;0.20;;;22.70;49.60;;;;;;4956420;28;20043;-84
2021/06/10 00:16:19;;;;;;;0.28;0.10;;;22.60;49.70;;;;;;4983489;28;20057;-84
2021/06/10 00:18:49;;;;;;;0.28;0.05;;;22.60;49.70;;;;;;4979579;28;20027;-84
2021/06/10 00:21:15;;;;;;;0.43;0.17;;;22.50;49.80;;;;;;4976249;28;20031;-84
2021/06/10 00:23:41;;;;;;;0.35;0.20;;;22.50;49.90;;;;;;4975245;28;20027;-85
2021/06/10 00:26:07;;;;;;;1.27;0.20;;;22.40;49.90;;;;;;4972007;28;20081;-83
2021/06/10 00:28:33;;;;;;;0.73;0.22;;;22.40;50.00;;;;;;4976657;28;20027;-84
2021/06/10 00:31:03;;;;;;;0.52;0.20;;;22.40;50.00;;;;;;4976829;28;20042;-84
2021/06/10 00:33:29;;;;;;;0.22;0.10;;;22.40;50.10;;;;;;4972898;28;20022;-84
2021/06/10 00:35:55;;;;;;;0.20;0.00;;;22.30;50.10;;;;;;4971867;28;20477;-83
2021/06/10 00:38:21;;;;;;;0.40;0.10;;;22.30;50.20;;;;;;4973510;28;20031;-84
2021/06/10 00:40:47;;;;;;;0.40;0.13;;;22.20;50.20;;;;;;4973422;28;20035;-82
2021/06/10 00:43:13;;;;;;;1.00;0.22;;;22.20;50.40;;;;;;4991496;28;20034;-84
2021/06/10 00:45:39;;;;;;;0.10;0.00;;;22.20;50.40;;;;;;4981210;28;20042;-81
2021/06/10 00:48:06;;;;;;;1.02;0.57;;;22.20;50.50;;;;;;4970259;28;20591;-84
2021/06/10 00:50:41;;;;;;;0.20;0.00;;;22.20;50.50;;;;;;4980133;28;20046;-84
2021/06/10 00:53:07;;;;;;;4.47;0.10;;;22.10;50.60;;;;;;4975789;28;20394;-84
2021/06/10 00:55:34;;;;;;;0.68;0.10;;;22.10;50.70;;;;;;5003653;28;20031;-84
2021/06/10 00:58:00;;;;;;;0.35;0.10;;;22.10;50.70;;;;;;4979574;28;20062;-83
2021/06/10 01:00:26;;;;;;;0.20;0.10;;;22.10;50.70;;;;;;4979254;28;20034;-83
2021/06/10 01:02:52;;;;;;;0.57;0.30;;;22.00;50.80;;;;;;4958325;28;20051;-84
2021/06/10 01:05:19;;;;;;;0.17;0.00;;;22.00;51.00;;;;;;4976823;28;20400;-84
2021/06/10 01:07:57;;;;;;;0.68;0.10;;;21.90;51.00;;;;;;4975381;28;20050;-80
2021/06/10 01:10:36;;;;;;;0.20;0.00;;;21.90;51.10;;;;;;4974618;28;20039;-83
2021/06/10 01:13:11;;;;;;;0.52;0.03;;;21.90;51.10;;;;;;4989742;28;20491;-83
2021/06/10 01:15:40;;;;;;;0.55;0.20;;;21.90;51.20;;;;;;4990726;28;20061;-83
2021/06/10 01:18:06;;;;;;;4.93;0.35;;;21.80;51.20;;;;;;4955740;28;20042;-84
2021/06/10 01:20:32;;;;;;;0.60;0.20;;;21.80;51.30;;;;;;4964338;28;20033;-84
2021/06/10 01:22:58;;;;;;;0.22;0.08;;;21.70;51.30;;;;;;4959150;28;20377;-83
2021/06/10 01:25:27;;;;;;;1.70;0.20;;;21.70;51.30;;;;;;4976581;28;20491;-83
2021/06/10 01:28:07;;;;;;;0.50;0.10;;;21.70;51.40;;;;;;4974693;28;20030;-84
2021/06/10 01:30:44;;;;;;;0.67;0.30;;;21.60;51.50;;;;;;4978613;28;20403;-84
2021/06/10 01:33:18;;;;;;;0.30;0.10;;;21.60;51.50;;;;;;4986074;28;20030;-84
2021/06/10 01:35:54;;;;;;;1.67;0.70;;;21.70;51.60;;;;;;4978922;28;20034;-84
2021/06/10 01:38:21;;;;;;;0.75;0.40;;;21.60;51.50;;;;;;4976638;28;20380;-82
2021/06/10 01:40:48;;;;;;;0.73;0.20;;;21.60;51.50;;;;;;4961243;28;20074;-84
2021/06/10 01:43:14;;;;;;;0.68;0.20;;;21.60;51.60;;;;;;5011740;28;20035;-84
2021/06/10 01:45:40;;;;;;;0.32;0.10;;;21.60;51.70;;;;;;4994494;28;20047;-84
2021/06/10 01:48:06;;;;;;;0.38;0.10;;;21.60;51.70;;;;;;4990628;28;20026;-84
2021/06/10 01:50:32;;;;;;;0.30;0.10;;;21.50;51.70;;;;;;4975698;28;20054;-82
2021/06/10 01:52:59;;;;;;;0.57;0.15;;;21.50;51.80;;;;;;4974429;28;20472;-84
2021/06/10 01:55:27;;;;;;;0.45;0.20;;;21.50;52.00;;;;;;4975137;28;20042;-85
2021/06/10 01:57:55;;;;;;;0.75;0.20;;;21.40;52.00;;;;;;4974077;28;20030;-84
2021/06/10 02:00:22;;;;;;;0.28;0.08;;;21.30;52.10;;;;;;4989817;28;20035;-84
2021/06/10 02:02:48;;;;;;;0.98;0.15;;;21.30;52.20;;;;;;4952068;28;20044;-83
2021/06/10 02:05:14;;;;;;;0.30;0.10;;;21.30;52.20;;;;;;4967061;28;20396;-82
2021/06/10 02:07:42;;;;;;;0.20;0.03;;;21.30;52.30;;;;;;4972248;28;20042;-85
2021/06/10 02:10:12;;;;;;;0.25;0.08;;;21.30;52.40;;;;;;4972580;28;20047;-84
2021/06/10 02:12:38;;;;;;;0.60;0.17;;;21.30;52.50;;;;;;4973117;28;20488;-84
2021/06/10 02:15:10;;;;;;;0.25;0.10;;;21.20;52.40;;;;;;4985132;28;20302;-84
2021/06/10 02:17:36;;;;;;;0.82;0.30;;;21.20;52.50;;;;;;4970287;28;20034;-82
2021/06/10 02:20:03;;;;;;;0.10;0.00;;;21.10;52.60;;;;;;4986173;28;20035;-81
2021/06/10 02:22:29;;;;;;;0.38;0.10;;;21.10;52.70;;;;;;4956662;28;20416;-83
2021/06/10 02:24:56;;;;;;;0.32;0.10;;;21.10;52.70;;;;;;4971384;28;20046;-82
2021/06/10 02:27:22;;;;;;;0.98;0.40;;;21.10;52.80;;;;;;4969147;28;20034;-83
2021/06/10 02:29:48;;;;;;;0.55;0.20;;;21.00;52.70;;;;;;4971596;28;20051;-83
2021/06/10 02:32:14;;;;;;;2.75;0.20;;;21.00;52.80;;;;;;4969923;28;20039;-83
2021/06/10 02:34:40;;;;;;;1.83;0.22;;;21.00;52.90;;;;;;4973307;28;20042;-84
2021/06/10 02:37:06;;;;;;;0.57;0.20;;;21.00;52.90;;;;;;4970497;28;20034;-83
2021/06/10 02:39:38;;;;;;;0.75;0.10;;;20.90;53.20;;;;;;4973318;28;20034;-84
2021/06/10 02:42:04;;;;;;;0.85;0.15;;;20.90;53.20;;;;;;4973474;28;20034;-83
2021/06/10 02:44:30;;;;;;;0.60;0.28;;;20.80;53.90;;;;;;4973663;28;20416;-83
2021/06/10 02:46:56;;;;;;;0.40;0.10;;;20.80;53.40;;;;;;4985573;28;20062;-83
2021/06/10 02:49:24;;;;;;;1.52;0.50;;;20.80;53.40;;;;;;5010722;28;20035;-85
2021/06/10 02:51:50;;;;;;;0.30;0.00;;;20.80;54.00;;;;;;5010420;28;20381;-82
2021/06/10 02:54:17;;;;;;;0.40;0.08;;;20.80;53.40;;;;;;5009784;28;20030;-82
2021/06/10 02:56:43;;;;;;;0.68;0.28;;;20.80;53.50;;;;;;4993502;28;20431;-84
2021/06/10 02:59:09;;;;;;;0.63;0.25;;;20.70;53.60;;;;;;4973608;28;20034;-84
2021/06/10 03:01:38;;;;;;;0.73;0.10;;;20.70;53.70;;;;;;4977297;28;20038;-82
2021/06/10 03:04:04;;;;;;;1.33;0.20;;;20.60;53.80;;;;;;4967982;28;20039;-86
2021/06/10 03:06:31;;;;;;;2.63;0.30;;;20.60;53.90;;;;;;4983881;28;20511;-83
2021/06/10 03:08:57;;;;;;;0.45;0.20;;;20.50;53.90;;;;;;4988581;28;20042;-83
2021/06/10 03:11:23;;;;;;;1.00;0.30;;;20.50;53.90;;;;;;4973101;28;20400;-84
2021/06/10 03:13:49;;;;;;;0.52;0.15;;;20.50;54.00;;;;;;4973178;28;20038;-83
2021/06/10 03:16:15;;;;;;;0.40;0.30;;;20.40;54.00;;;;;;4988947;28;20041;-83
2021/06/10 03:18:42;;;;;;;0.90;0.20;;;20.40;54.10;;;;;;4988968;28;20035;-83
2021/06/10 03:21:08;;;;;;;0.88;0.10;;;20.40;54.10;;;;;;4972766;28;20059;-83
2021/06/10 03:23:34;;;;;;;0.68;0.25;;;20.40;54.10;;;;;;4988808;28;20038;-83
2021/06/10 03:26:00;;;;;;;2.33;0.40;;;20.40;54.20;;;;;;4972822;28;20046;-82
2021/06/10 03:28:27;;;;;;;1.27;0.28;;;20.40;54.20;;;;;;4973345;28;20031;-84
2021/06/10 03:30:53;;;;;;;0.28;0.10;;;20.40;54.30;;;;;;4972080;28;20054;-84
2021/06/10 03:33:19;;;;;;;0.52;0.15;;;20.30;54.30;;;;;;4972707;28;20046;-83
2021/06/10 03:35:45;;;;;;;0.30;0.20;;;20.30;54.40;;;;;;4972445;28;20037;-83
2021/06/10 03:38:13;;;;;;;0.20;0.00;;;20.20;54.50;;;;;;4972390;28;20057;-84
2021/06/10 03:40:40;;;;;;;0.85;0.30;;;20.20;54.60;;;;;;4972976;28;20026;-83
2021/06/10 03:43:06;;;;;;;0.55;0.15;;;20.20;54.70;;;;;;4986534;28;20037;-82
2021/06/10 03:45:32;;;;;;;0.65;0.10;;;20.10;54.70;;;;;;4971705;28;20043;-84
2021/06/10 03:47:58;;;;;;;1.55;0.32;;;20.10;54.80;;;;;;4956605;28;20054;-85
2021/06/10 03:50:29;;;;;;;3.30;0.43;;;20.10;54.80;;;;;;4972487;28;20043;-83
2021/06/10 03:52:55;;;;;;;;;;;20.10;54.90;;;;;;4972547;28;20022;-83
2021/06/10 03:55:21;;;;;;;0.65;0.30;;;20.10;55.00;;;;;;4989361;28;19910;-83
2021/06/10 03:57:47;;;;;;;1.25;0.30;;;20.00;54.90;;;;;;4988431;28;20384;-84
2021/06/10 04:00:14;;;;;;;1.83;0.20;;;20.00;54.90;;;;;;4974402;28;20031;-84
2021/06/10 04:02:40;;;;;;;0.80;0.30;;;19.90;55.00;;;;;;4987615;28;20045;-85
2021/06/10 04:05:08;;;;;;;0.45;0.10;;;19.90;55.10;;;;;;4973451;28;20496;-85
2021/06/10 04:07:34;;;;;;;0.30;0.10;;;19.90;55.10;;;;;;4988932;28;20046;-84
2021/06/10 04:10:00;;;;;;;0.55;0.08;;;19.90;55.20;;;;;;4976498;28;20041;-84
2021/06/10 04:12:26;;;;;;;0.95;0.20;;;19.90;55.20;;;;;;4976361;28;20038;-84
2021/06/10 04:14:52;;;;;;;0.50;0.10;;;19.90;55.80;;;;;;4976462;28;20022;-83
2021/06/10 04:17:18;;;;;;;4.50;0.40;;;19.90;55.30;;;;;;4970641;28;20035;-84
2021/06/10 04:19:44;;;;;;;0.60;0.05;;;19.80;55.90;;;;;;4973238;28;20464;-83
2021/06/10 04:22:11;;;;;;;1.98;0.30;;;19.80;55.30;;;;;;4973229;28;20039;-84
2021/06/10 04:24:37;;;;;;;0.93;0.30;;;19.80;55.40;;;;;;4973087;28;20034;-83
2021/06/10 04:27:03;;;;;;;0.90;0.20;;;19.80;55.40;;;;;;4971973;28;20369;-84
2021/06/10 04:29:29;;;;;;;0.52;0.30;;;19.80;55.50;;;;;;4971997;28;20043;-83
2021/06/10 04:31:56;;;;;;;0.98;0.38;;;19.80;55.60;;;;;;4985340;28;20425;-84
2021/06/10 04:34:22;;;;;;;0.45;0.15;;;19.80;55.60;;;;;;5009282;28;20035;-84
2021/06/10 04:36:48;;;;;;;0.28;0.10;;;19.70;55.60;;;;;;5008331;28;20042;-84
2021/06/10 04:39:14;;;;;;;0.88;0.38;;;19.70;55.70;;;;;;4977442;28;20396;-84
2021/06/10 04:41:40;;;;;;;1.60;0.17;;;19.70;55.80;;;;;;4977264;28;20037;-82
2021/06/10 04:44:06;;;;;;;0.65;0.28;;;19.70;55.90;;;;;;4972995;28;20031;-82
2021/06/10 04:46:33;;;;;;;2.95;0.57;;;19.70;56.00;;;;;;5008374;28;20059;-84
2021/06/10 04:49:03;;;;;;;1.52;0.17;;;19.70;56.10;;;;;;4973028;28;20034;-84
2021/06/10 04:51:29;;;;;;;0.82;0.10;;;19.70;56.10;;;;;;4971162;28;20039;-84
2021/06/10 04:53:55;;;;;;;0.65;0.30;;;19.70;56.20;;;;;;4972894;28;20043;-80
2021/06/10 04:56:21;;;;;;;2.40;0.40;;;19.70;56.40;;;;;;4972829;28;20045;-82
2021/06/10 04:58:47;;;;;;;1.33;0.47;;;19.70;56.50;;;;;;4971877;28;20034;-83
2021/06/10 05:01:14;;;;;;;0.35;0.10;;;19.70;56.50;;;;;;4987743;28;20035;-84
2021/06/10 05:03:40;;;;;;;1.55;0.45;;;19.90;56.40;;;;;;4972682;28;20033;-83
2021/06/10 05:06:06;;;;;;;1.10;0.22;;;20.00;56.10;;;;;;4971370;28;20031;-84
2021/06/10 05:08:32;;;;;;;1.02;0.20;;;20.20;55.80;;;;;;4971747;28;20031;-84
2021/06/10 05:10:59;;;;;;;5.95;0.35;;;20.40;55.70;;;;;;4971373;28;20054;-83
2021/06/10 05:13:25;;;;;;;0.25;0.10;;;20.60;56.20;;;;;;4973339;28;20027;-84
2021/06/10 05:15:51;;;;;;;1.10;0.20;;;20.70;55.40;;;;;;4978843;28;20027;-83
2021/06/10 05:18:17;;;;;;;0.40;0.20;;;20.80;55.30;;;;;;4982878;28;20357;-83
2021/06/10 05:20:44;;;;;;;0.55;0.10;;;20.90;55.30;;;;;;4975539;28;20038;-84
2021/06/10 05:23:10;;;;;;;0.70;0.40;;;21.10;55.90;;;;;;4972981;28;20034;-84
2021/06/10 05:25:36;;;;;;;4.15;0.43;;;21.10;55.30;;;;;;4977168;28;20567;-84
2021/06/10 05:28:03;;;;;;;0.40;0.25;;;21.20;55.20;;;;;;4978275;28;20042;-85
2021/06/10 05:30:29;;;;;;;0.70;0.30;;;21.30;55.10;;;;;;4978681;28;20039;-83
2021/06/10 05:32:55;;;;;;;1.20;0.63;;;21.50;54.80;;;;;;4957933;28;20043;-84
2021/06/10 05:35:21;;;;;;;0.73;0.25;;;21.70;54.60;;;;;;4975688;28;20050;-83
2021/06/10 05:37:47;;;;;;;1.38;0.30;;;21.90;54.30;;;;;;4975088;28;20035;-83
2021/06/10 05:40:14;;;;;;;0.60;0.10;;;22.10;54.10;;;;;;4991396;28;20042;-83
2021/06/10 05:42:40;;;;;;;1.48;0.35;;;22.20;54.00;;;;;;4990810;28;20027;-83
2021/06/10 05:45:07;;;;;;;1.33;0.30;;;22.30;53.80;;;;;;4990247;28;20054;-85
2021/06/10 05:47:33;;;;;;;0.57;0.13;;;22.30;53.80;;;;;;4974479;28;20054;-83
2021/06/10 05:49:59;;;;;;;1.70;0.40;;;22.20;54.00;;;;;;4975255;28;20476;-83
2021/06/10 05:52:26;;;;;;;0.82;0.20;;;22.10;54.10;;;;;;4991202;28;20035;-83
2021/06/10 05:54:52;;;;;;;0.52;0.25;;;21.90;54.30;;;;;;4974502;28;20053;-83
2021/06/10 05:57:18;;;;;;;1.17;0.77;;;21.80;54.60;;;;;;4974460;28;20042;-83
2021/06/10 05:59:47;;;;;;;0.88;0.28;;;21.60;54.80;;;;;;4958214;28;20050;-84
2021/06/10 06:02:16;;;;;;;1.83;0.30;;;21.50;55.00;;;;;;4986998;28;20038;-83
2021/06/10 06:04:43;;;;;;;1.27;0.35;;;21.40;55.10;;;;;;4978838;28;20388;-83
2021/06/10 06:07:09;;;;;;;1.10;0.32;;;21.30;55.10;;;;;;5011339;28;20027;-83
2021/06/10 06:09:36;;;;;;;1.08;0.30;;;21.30;55.20;;;;;;4994825;28;20045;-83
2021/06/10 06:12:03;;;;;;;2.10;0.52;;;21.30;55.30;;;;;;4994303;28;20042;-83
2021/06/10 06:14:33;;;;;;;3.22;0.52;;;21.30;55.30;;;;;;4978278;28;20407;-83
2021/06/10 06:17:01;;;;;;;4.15;0.85;;;21.40;55.30;;;;;;4975278;28;20038;-85
2021/06/10 06:19:27;;;;;;;0.60;0.40;;;21.30;55.20;;;;;;4974487;28;20042;-83
2021/06/10 06:21:53;;;;;;;1.10;0.22;;;21.30;55.30;;;;;;4974101;28;20476;-83
2021/06/10 06:24:19;;;;;;;0.65;0.30;;;21.30;55.20;;;;;;4975173;28;20035;-83
2021/06/10 06:26:45;;;;;;;1.40;0.40;;;21.40;55.20;;;;;;4973953;28;20488;-83
2021/06/10 06:29:11;;;;;;;0.95;0.20;;;21.50;55.10;;;;;;4975031;28;20027;-83
2021/06/10 06:31:37;;;;;;;0.28;0.13;;;21.60;55.00;;;;;;4986250;28;20427;-83
2021/06/10 06:34:04;;;;;;;0.90;0.20;;;21.60;55.40;;;;;;5010815;28;20038;-83
2021/06/10 06:36:30;;;;;;;0.10;0.03;;;21.70;54.80;;;;;;4994327;28;20023;-83
2021/06/10 06:38:56;;;;;;;1.55;0.28;;;21.70;54.80;;;;;;4993659;28;20034;-83
2021/06/10 06:41:23;;;;;;;1.33;0.28;;;21.70;54.90;;;;;;4976500;28;20426;-83
2021/06/10 06:43:49;;;;;;;0.32;0.13;;;21.70;55.00;;;;;;4976111;28;20030;-84
2021/06/10 06:46:15;;;;;;;1.20;0.57;;;21.60;55.00;;;;;;4978685;28;20460;-83
2021/06/10 06:48:41;;;;;;;2.38;0.52;;;21.60;55.10;;;;;;4973548;28;20034;-83
2021/06/10 06:51:09;;;;;;;3.08;0.75;;;21.60;55.20;;;;;;4957357;28;20046;-83
2021/06/10 06:53:35;;;;;;;0.45;0.10;;;21.50;55.30;;;;;;4973463;28;20025;-83
2021/06/10 06:56:02;;;;;;;0.98;0.40;;;21.40;55.40;;;;;;4973555;28;20042;-83
2021/06/10 06:58:28;;;;;;;0.30;0.08;;;21.30;55.50;;;;;;4973909;28;20101;-83
2021/06/10 07:00:54;;;;;;;0.10;0.00;;;21.30;55.60;;;;;;4988574;28;20439;-84
2021/06/10 07:03:21;;;;;;;0.85;0.25;;;21.30;55.70;;;;;;4973396;28;20023;-84
2021/06/10 07:05:47;;;;;;;0.25;0.08;;;21.30;55.80;;;;;;4989332;28;20039;-84
2021/06/10 07:08:13;;;;;;;2.08;0.25;;;21.30;55.90;;;;;;4973362;28;20023;-84
2021/06/10 07:10:40;;;;;;;1.67;0.52;;;21.30;56.50;;;;;;4973460;28;20042;-84
2021/06/10 07:13:06;;;;;;;0.63;0.28;;;21.30;55.90;;;;;;4973713;28;20047;-83
2021/06/10 07:15:32;;;;;;;1.20;0.40;;;21.30;56.00;;;;;;4976150;28;20484;-83
2021/06/10 07:17:58;;;;;;;0.38;0.30;;;21.30;56.00;;;;;;4985777;28;20053;-82
2021/06/10 07:20:24;;;;;;;0.45;0.22;;;21.40;56.00;;;;;;4975011;28;20046;-83
2021/06/10 07:22:50;;;;;;;0.90;0.22;;;21.40;56.00;;;;;;4976165;28;20027;-84
2021/06/10 07:25:16;;;;;;;1.30;0.52;;;21.50;55.90;;;;;;5010143;28;20034;-84
2021/06/10 07:27:43;;;;;;;1.70;0.95;;;21.50;55.80;;;;;;4978474;28;20038;-84
2021/06/10 07:30:10;;;;;;;0.95;0.30;;;21.70;55.80;;;;;;4977106;28;20499;-84
2021/06/10 07:32:36;;;;;;;0.20;0.10;;;21.70;55.70;;;;;;4972829;28;20026;-84
2021/06/10 07:35:03;;;;;;;1.20;0.20;;;21.70;55.70;;;;;;4972680;28;20038;-84
2021/06/10 07:37:29;;;;;;;0.88;0.20;;;21.80;55.70;;;;;;4973336;28;20031;-83
2021/06/10 07:39:55;;;;;;;0.43;0.15;;;21.80;55.60;;;;;;4972654;28;20030;-85
2021/06/10 07:42:22;;;;;;;0.05;0.05;;;21.90;55.60;;;;;;4973669;28;20042;-84
2021/06/10 07:44:48;;;;;;;1.45;0.40;;;22.00;55.40;;;;;;4972132;28;20031;-83
2021/06/10 07:47:14;;;;;;;0.35;0.17;;;22.10;55.20;;;;;;4986784;28;20031;-83
2021/06/10 07:49:41;;;;;;;2.50;0.40;;;22.30;55.00;;;;;;4976039;28;20390;-84
2021/06/10 07:52:07;;;;;;;0.35;0.03;;;22.30;54.90;;;;;;5009076;28;20042;-84
2021/06/10 07:54:33;;;;;;;0.75;0.28;;;22.40;54.80;;;;;;5009154;28;20026;-84
2021/06/10 07:56:59;;;;;;;0.90;0.40;;;22.50;54.70;;;;;;5009040;28;20037;-84
2021/06/10 07:59:26;;;;;;;0.50;0.15;;;22.50;54.60;;;;;;4974271;28;20026;-84
2021/06/10 08:01:55;;;;;;;0.28;0.08;;;22.60;54.60;;;;;;4974926;28;20038;-83
2021/06/10 08:04:22;;;;;;;1.58;0.60;;;22.60;54.50;;;;;;4971211;28;20039;-84
2021/06/10 08:06:48;;;;;;;0.47;0.10;;;22.80;54.40;;;;;;4988268;28;20043;-84
2021/06/10 08:09:14;;;;;;;0.68;0.17;;;22.80;54.20;;;;;;4971987;28;20027;-84
2021/06/10 08:11:41;;;;;;;1.55;0.22;;;22.80;54.10;;;;;;4973349;28;20050;-84
2021/06/10 08:14:07;;;;;;;0.57;0.20;;;22.90;54.20;;;;;;4971855;28;20022;-84
2021/06/10 08:16:33;;;;;;;1.00;0.40;;;22.90;54.10;;;;;;4988414;28;20039;-84
2021/06/10 08:18:59;;;;;;;0.52;0.25;;;23.00;54.10;;;;;;4971976;28;20031;-84
2021/06/10 08:21:25;;;;;;;0.32;0.20;;;23.00;54.00;;;;;;4973172;28;20034;-84
2021/06/10 08:23:51;;;;;;;0.60;0.13;;;23.00;54.00;;;;;;4973146;28;20460;-83
2021/06/10 08:26:18;;;;;;;1.13;0.32;;;22.90;53.90;;;;;;4973097;28;20039;-84
2021/06/10 08:28:44;;;;;;;0.75;0.28;;;22.90;54.00;;;;;;4973057;28;20381;-84
2021/06/10 08:31:10;;;;;;;0.57;0.38;;;22.90;54.10;;;;;;4987895;28;20039;-84
2021/06/10 08:33:36;;;;;;;1.20;0.28;;;22.90;54.10;;;;;;4972154;28;20514;-84
2021/06/10 08:36:06;;;;;;;0.03;0.00;;;23.10;53.90;;;;;;4973058;28;20045;-84
2021/06/10 08:38:33;;;;;;;0.52;0.17;;;23.40;53.50;;;;;;4972340;28;20122;-84
2021/06/10 08:41:00;;;;;;;1.27;0.30;;;23.80;52.90;;;;;;4971859;28;20030;-84
2021/06/10 08:43:27;;;;;;;1.08;0.40;;;24.20;52.40;;;;;;4971914;28;20030;-84
2021/06/10 08:46:23;;;;;;;0.22;0.10;;;24.40;52.10;;;;;;4987531;28;20047;-84
2021/06/10 08:48:50;;;;;;;0.43;0.20;;;24.50;51.90;;;;;;4963241;28;20047;-85
2021/06/10 08:51:17;;;;;;;3.15;0.25;;;24.60;51.80;;;;;;4956062;28;20050;-84
2021/06/10 08:53:43;;;;;;;0.05;0.00;;;24.70;51.60;;;;;;4971691;28;20503;-84
2021/06/10 08:56:09;;;;;;;1.92;0.32;;;24.80;51.40;;;;;;4971860;28;20045;-84
2021/06/10 08:58:37;;;;;;;0.40;0.10;;;25.00;51.30;;;;;;4972014;28;20051;-84
2021/06/10 09:01:03;;;;;;;1.15;0.20;;;25.20;51.00;;;;;;4961335;28;20034;-84
2021/06/10 09:03:32;;;;;;;0.20;0.08;;;25.40;50.80;;;;;;4965242;28;20049;-85
2021/06/10 09:06:07;;;;;;;1.02;0.25;;;25.70;50.60;;;;;;4962839;28;20043;-85
2021/06/10 09:08:34;;;;;;;2.47;0.50;;;25.90;50.50;;;;;;4978520;28;20031;-84
2021/06/10 09:11:11;;;;;;;0.10;0.08;;;26.10;50.10;;;;;;4959765;28;20412;-85
2021/06/10 09:13:53;;;;;;;0.57;0.15;;;26.10;50.00;;;;;;4988866;28;20034;-85
2021/06/10 09:16:33;;;;;;;0.80;0.17;;;26.00;50.10;;;;;;4977527;28;20393;-84
2021/06/10 09:19:11;;;;;;;0.20;0.00;;;26.00;50.30;;;;;;4964361;28;20058;-85
2021/06/10 09:21:44;;;;;;;0.80;0.20;;;26.00;50.40;;;;;;4976277;28;20039;-85
2021/06/10 09:24:18;;;;;;;1.60;0.20;;;26.20;50.20;;;;;;4975099;28;20118;-85
2021/06/10 09:26:45;;;;;;;0.35;0.00;;;26.30;50.00;;;;;;4974708;28;20034;-85
2021/06/10 09:29:11;;;;;;;0.68;0.15;;;26.40;49.90;;;;;;4958174;28;20039;-85
2021/06/10 09:31:39;;;;;;;0.43;0.20;;;26.60;49.70;;;;;;4989012;28;20042;-85
2021/06/10 09:34:12;;;;;;;1.17;0.20;;;26.60;49.50;;;;;;4963644;28;20039;-84
2021/06/10 09:36:43;;;;;;;1.45;0.20;;;26.60;49.50;;;;;;4979164;28;20038;-85
2021/06/10 09:39:13;;;;;;;0.20;0.10;;;26.60;49.50;;;;;;4980366;28;20392;-85
2021/06/10 09:42:21;;;;;;;0.32;0.10;;;26.50;49.50;;;;;;4979678;28;20034;-85
2021/06/10 09:44:48;;;;;;;0.20;0.00;;;26.50;49.70;;;;;;4969388;28;20042;-84
2021/06/10 09:47:14;;;;;;;3.55;0.30;;;26.50;49.70;;;;;;4957245;28;20039;-85
2021/06/10 09:49:40;;;;;;;0.45;0.20;;;26.40;49.80;;;;;;4941526;28;20039;-85
2021/06/10 09:52:07;;;;;;;5.38;0.38;;;26.30;49.80;;;;;;4989644;28;20054;-84
2021/06/10 09:54:42;;;;;;;0.25;0.10;;;26.30;49.80;;;;;;4973243;28;20038;-85
2021/06/10 09:57:08;;;;;;;0.40;0.20;;;26.40;49.80;;;;;;4973443;28;20536;-85
2021/06/10 09:59:51;;;;;;;0.20;0.00;;;26.50;49.60;;;;;;4957426;28;20034;-85
2021/06/10 10:02:25;;;;;;;0.28;0.10;;;26.80;49.50;;;;;;4973162;28;20122;-85
2021/06/10 10:05:06;;;;;;;0.73;0.30;;;27.00;49.10;;;;;;4957596;28;20041;-84
2021/06/10 10:07:36;;;;;;;1.80;0.60;;;27.20;48.80;;;;;;4989749;28;20369;-84
2021/06/10 10:10:07;;;;;;;1.10;0.28;;;27.40;48.70;;;;;;4972656;28;20043;-85
2021/06/10 10:12:33;;;;;;;1.20;0.40;;;27.60;48.50;;;;;;4989428;28;20066;-84
2021/06/10 10:14:59;;;;;;;0.45;0.10;;;27.70;48.30;;;;;;4987640;28;20050;-84
2021/06/10 10:17:27;;;;;;;0.80;0.20;;;27.60;48.20;;;;;;4973711;28;20038;-85
2021/06/10 10:19:54;;;;;;;0.20;0.10;;;27.40;48.50;;;;;;4958363;28;20046;-84
2021/06/10 10:22:21;;;;;;;0.70;0.10;;;27.30;48.70;;;;;;4974050;28;20035;-84
2021/06/10 10:24:47;;;;;;;0.35;0.17;;;27.20;48.80;;;;;;4973730;28;20038;-84
2021/06/10 10:27:13;;;;;;;0.30;0.00;;;27.10;48.90;;;;;;4974010;28;20027;-84
2021/06/10 10:29:43;;;;;;;0.45;0.20;;;27.00;49.00;;;;;;4973903;28;20038;-85
2021/06/10 10:32:13;;;;;;;0.30;0.05;;;26.90;49.00;;;;;;4986160;28;20043;-85
2021/06/10 10:34:40;;;;;;;1.75;0.32;;;26.90;49.10;;;;;;4978051;28;20035;-85
2021/06/10 10:37:32;;;;;;;0.60;0.15;;;26.80;49.10;;;;;;5010664;28;20043;-84
2021/06/10 10:39:58;;;;;;;0.28;0.10;;;26.60;49.30;;;;;;4975900;28;20050;-84
2021/06/10 10:42:33;;;;;;;1.02;0.20;;;26.50;49.40;;;;;;4979093;28;20029;-85
2021/06/10 10:45:21;;;;;;;0.93;0.35;;;26.50;49.70;;;;;;4961726;28;20042;-84
2021/06/10 10:50:49;;;;;;;3.00;0.20;;;26.40;49.90;;;;;;4975090;28;20055;-84
2021/06/10 10:53:20;;;;;;;0.77;0.20;;;26.40;49.90;;;;;;4957042;28;20050;-84
2021/06/10 10:55:47;;;;;;;1.40;0.10;;;26.30;49.90;;;;;;4974791;28;20034;-84
2021/06/10 10:58:19;;;;;;;0.77;0.20;;;26.20;50.00;;;;;;4989960;28;20057;-84
2021/06/10 11:00:47;;;;;;;0.45;0.25;;;26.10;50.10;;;;;;4988951;28;20038;-84
2021/06/10 11:03:36;;;;;;;0.17;0.10;;;26.20;50.20;;;;;;4974492;28;20027;-84
2021/06/10 11:06:26;;;;;;;0.20;0.10;;;26.20;50.20;;;;;;4967703;28;20558;-84
2021/06/10 11:09:20;;;;;;;0.85;0.10;;;26.40;50.00;;;;;;4967500;28;20378;-84
2021/06/10 11:11:59;;;;;;;0.57;0.20;;;26.50;49.80;;;;;;4937174;28;20050;-85
2021/06/10 11:14:43;;;;;;;1.33;0.47;;;26.60;49.70;;;;;;4941124;28;20035;-85
2021/06/10 11:17:25;;;;;;;0.22;0.13;;;26.60;49.60;;;;;;4971172;28;20109;-84
2021/06/10 11:19:54;;;;;;;0.57;0.30;;;26.70;49.50;;;;;;4954543;28;20035;-84
2021/06/10 11:22:27;;;;;;;0.90;0.30;;;26.70;49.40;;;;;;4972135;28;20035;-85
2021/06/10 11:24:53;;;;;;;0.38;0.15;;;26.70;49.40;;;;;;4967479;28;20054;-84
2021/06/10 11:27:38;;;;;;;11.13;0.25;;;26.70;49.40;;;;;;4955367;28;20062;-84
2021/06/10 11:30:28;;;;;;;0.80;0.20;;;26.80;49.40;;;;;;4938710;28;20035;-85
2021/06/10 11:33:12;;;;;;;4.28;0.20;;;26.90;49.30;;;;;;4946314;28;20055;-84
2021/06/10 11:35:53;;;;;;;0.80;0.20;;;27.20;49.10;;;;;;4967753;28;20054;-85
2021/06/10 11:38:26;;;;;;;0.30;0.10;;;27.40;48.70;;;;;;4970337;28;20031;-85
2021/06/10 11:40:55;;;;;;;0.68;0.15;;;27.60;48.60;;;;;;4969927;28;20515;-84
2021/06/10 11:43:22;;;;;;;0.15;0.03;;;27.70;48.30;;;;;;4971497;28;20057;-83
2021/06/10 11:45:58;;;;;;;2.05;0.30;;;28.00;48.10;;;;;;4979371;28;20496;-85
2021/06/10 11:48:44;;;;;;;0.43;0.10;;;28.10;47.90;;;;;;4983164;28;20034;-84
2021/06/10 11:51:19;;;;;;;0.70;0.20;;;28.30;47.60;;;;;;4957236;28;20031;-84
2021/06/10 11:53:45;;;;;;;0.55;0.10;;;28.50;47.40;;;;;;4967660;28;20086;-84
2021/06/10 11:56:11;;;;;;;0.93;0.30;;;28.60;47.20;;;;;;4972805;28;20027;-84
2021/06/10 11:58:37;;;;;;;0.73;0.17;;;28.60;47.00;;;;;;4976776;28;20035;-84
2021/06/10 12:01:13;;;;;;;0.30;0.08;;;28.70;46.90;;;;;;4977329;28;20035;-85
2021/06/10 12:03:40;;;;;;;0.30;0.00;;;28.70;46.80;;;;;;4972264;28;20399;-84
2021/06/10 12:06:10;;;;;;;0.35;0.10;;;28.60;46.80;;;;;;4954776;28;20041;-84
2021/06/10 12:08:37;;;;;;;3.03;0.40;;;28.70;46.80;;;;;;4972264;28;20027;-84
2021/06/10 12:11:07;;;;;;;0.30;0.10;;;28.80;46.70;;;;;;4972018;28;20031;-84
2021/06/10 12:13:35;;;;;;;0.70;0.20;;;28.80;46.50;;;;;;4988943;28;20357;-84
2021/06/10 12:16:05;;;;;;;0.35;0.10;;;28.90;46.40;;;;;;4987589;28;20046;-85
2021/06/10 12:18:32;;;;;;;0.75;0.10;;;28.90;46.40;;;;;;4987666;28;20015;-84
2021/06/10 12:21:05;;;;;;;0.73;0.20;;;28.90;46.20;;;;;;4987970;28;20039;-85
2021/06/10 12:23:38;;;;;;;0.20;0.10;;;28.80;46.20;;;;;;4972187;28;20507;-84
2021/06/10 12:26:09;;;;;;;1.52;0.28;;;28.80;46.20;;;;;;4973016;28;20038;-84
2021/06/10 12:28:47;;;;;;;0.52;0.05;;;28.80;46.20;;;;;;4984330;28;20042;-84
2021/06/10 12:31:24;;;;;;;1.48;0.20;;;28.70;46.10;;;;;;4987244;28;20050;-85
2021/06/10 12:33:57;;;;;;;0.20;0.10;;;28.80;46.10;;;;;;4987703;28;20030;-85
2021/06/10 12:36:32;;;;;;;1.27;0.30;;;28.80;46.00;;;;;;4973015;28;20034;-84
2021/06/10 12:39:08;;;;;;;1.27;0.13;;;28.90;45.90;;;;;;4957946;28;20432;-85
2021/06/10 12:41:35;;;;;;;0.60;0.22;;;29.00;45.80;;;;;;4975959;28;20030;-84
2021/06/10 12:44:08;;;;;;;0.50;0.10;;;29.10;45.60;;;;;;4975970;28;20542;-83
2021/06/10 12:46:46;;;;;;;0.77;0.10;;;29.20;45.40;;;;;;4989186;28;20046;-85
2021/06/10 12:49:12;;;;;;;0.17;0.00;;;29.20;45.50;;;;;;4980630;28;20042;-85
2021/06/10 12:51:49;;;;;;;0.25;0.03;;;29.10;45.40;;;;;;4979967;28;20103;-84
2021/06/10 12:54:16;;;;;;;0.30;0.10;;;28.90;45.60;;;;;;4979962;28;20038;-84
2021/06/10 12:56:50;;;;;;;2.28;0.20;;;28.80;45.80;;;;;;4962861;28;20035;-84
2021/06/10 12:59:37;;;;;;;0.50;0.17;;;28.60;45.90;;;;;;4976622;28;20034;-84